sensor_id;sensor_type;location;lat;lon;timestamp;P1;durP1;ratioP1;P2;durP2;ratioP2
56481;SDS011;42384;45.186;19.958;2023-05-10T00:01:28;12.77;;;7.22;;
56481;SDS011;42384;45.186;19.958;2023-05-10T00:03:54;12.67;;;6.93;;
56481;SDS011;42384;45.186;19.958;2023-05-10T00:06:21;10.82;;;7.07;;
56481;SDS011;42384;45.186;19.958;2023-05-10T00:08:47;11.57;;;7.30;;
56481;SDS011;42384;45.186;19.958;2023-05-10T00:11:13;11.57;;;7.33;;
56481;SDS011;42384;45.186;19.958;2023-05-10T00:13:39;12.07;;;7.57;;
56481;SDS011;42384;45.186;19.958;2023-05-10T00:16:06;8.75;;;6.32;;
56481;SDS011;42384;45.186;19.958;2023-05-10T00:18:32;10.02;;;7.55;;
56481;SDS011;42384;45.186;19.958;2023-05-10T00:20:58;11.02;;;7.18;;
56481;SDS011;42384;45.186;19.958;2023-05-10T00:23:25;12.52;;;7.93;;
56481;SDS011;42384;45.186;19.958;2023-05-10T00:25:51;12.57;;;7.28;;
56481;SDS011;42384;45.186;19.958;2023-05-10T00:28:17;12.00;;;6.93;;
56481;SDS011;42384;45.186;19.958;2023-05-10T00:30:43;14.60;;;8.23;;
56481;SDS011;42384;45.186;19.958;2023-05-10T00:33:10;16.83;;;8.30;;
56481;SDS011;42384;45.186;19.958;2023-05-10T00:35:36;12.73;;;8.10;;
56481;SDS011;42384;45.186;19.958;2023-05-10T00:38:03;10.38;;;6.53;;
56481;SDS011;42384;45.186;19.958;2023-05-10T00:40:29;10.45;;;7.80;;
56481;SDS011;42384;45.186;19.958;2023-05-10T00:42:56;8.97;;;7.60;;
56481;SDS011;42384;45.186;19.958;2023-05-10T00:45:23;9.65;;;7.10;;
56481;SDS011;42384;45.186;19.958;2023-05-10T00:47:50;10.73;;;7.85;;
56481;SDS011;42384;45.186;19.958;2023-05-10T00:50:20;9.88;;;7.78;;
56481;SDS011;42384;45.186;19.958;2023-05-10T00:52:46;10.13;;;7.82;;
56481;SDS011;42384;45.186;19.958;2023-05-10T00:55:13;9.63;;;7.90;;
56481;SDS011;42384;45.186;19.958;2023-05-10T00:57:39;10.32;;;7.80;;
56481;SDS011;42384;45.186;19.958;2023-05-10T01:00:05;12.63;;;7.77;;
56481;SDS011;42384;45.186;19.958;2023-05-10T01:02:33;10.93;;;7.75;;
56481;SDS011;42384;45.186;19.958;2023-05-10T01:05:01;8.57;;;7.07;;
56481;SDS011;42384;45.186;19.958;2023-05-10T01:07:28;10.68;;;7.82;;
56481;SDS011;42384;45.186;19.958;2023-05-10T01:09:55;13.18;;;8.35;;
56481;SDS011;42384;45.186;19.958;2023-05-10T01:12:22;11.02;;;8.30;;
56481;SDS011;42384;45.186;19.958;2023-05-10T01:14:48;9.50;;;7.63;;
56481;SDS011;42384;45.186;19.958;2023-05-10T01:17:14;17.15;;;8.98;;
56481;SDS011;42384;45.186;19.958;2023-05-10T01:19:42;11.50;;;7.85;;
56481;SDS011;42384;45.186;19.958;2023-05-10T01:27:30;12.67;;;8.97;;
56481;SDS011;42384;45.186;19.958;2023-05-10T01:30:05;10.52;;;8.18;;
56481;SDS011;42384;45.186;19.958;2023-05-10T01:32:39;12.90;;;7.70;;
56481;SDS011;42384;45.186;19.958;2023-05-10T01:35:07;9.82;;;7.20;;
56481;SDS011;42384;45.186;19.958;2023-05-10T01:37:42;10.27;;;8.13;;
56481;SDS011;42384;45.186;19.958;2023-05-10T01:40:32;11.25;;;8.27;;
56481;SDS011;42384;45.186;19.958;2023-05-10T01:43:02;14.05;;;8.63;;
56481;SDS011;42384;45.186;19.958;2023-05-10T01:45:45;11.98;;;7.25;;
56481;SDS011;42384;45.186;19.958;2023-05-10T01:48:13;10.93;;;8.48;;
56481;SDS011;42384;45.186;19.958;2023-05-10T01:50:41;11.70;;;8.20;;
56481;SDS011;42384;45.186;19.958;2023-05-10T01:53:09;11.13;;;7.82;;
56481;SDS011;42384;45.186;19.958;2023-05-10T01:58:13;12.98;;;8.27;;
56481;SDS011;42384;45.186;19.958;2023-05-10T02:03:06;11.43;;;7.93;;
56481;SDS011;42384;45.186;19.958;2023-05-10T02:07:59;13.80;;;7.18;;
56481;SDS011;42384;45.186;19.958;2023-05-10T02:10:28;14.38;;;7.43;;
56481;SDS011;42384;45.186;19.958;2023-05-10T02:12:54;10.60;;;7.78;;
56481;SDS011;42384;45.186;19.958;2023-05-10T02:15:22;14.88;;;7.68;;
56481;SDS011;42384;45.186;19.958;2023-05-10T02:17:50;9.68;;;7.90;;
56481;SDS011;42384;45.186;19.958;2023-05-10T02:20:16;13.30;;;7.82;;
56481;SDS011;42384;45.186;19.958;2023-05-10T02:22:44;8.90;;;6.80;;
56481;SDS011;42384;45.186;19.958;2023-05-10T02:25:11;9.50;;;7.53;;
56481;SDS011;42384;45.186;19.958;2023-05-10T02:27:38;11.25;;;7.20;;
56481;SDS011;42384;45.186;19.958;2023-05-10T02:30:05;9.60;;;7.10;;
56481;SDS011;42384;45.186;19.958;2023-05-10T02:32:31;12.98;;;8.38;;
56481;SDS011;42384;45.186;19.958;2023-05-10T02:37:25;10.63;;;6.85;;
56481;SDS011;42384;45.186;19.958;2023-05-10T02:39:52;11.95;;;8.13;;
56481;SDS011;42384;45.186;19.958;2023-05-10T02:42:20;12.95;;;8.32;;
56481;SDS011;42384;45.186;19.958;2023-05-10T02:44:48;13.30;;;8.05;;
56481;SDS011;42384;45.186;19.958;2023-05-10T02:47:16;11.20;;;8.32;;
56481;SDS011;42384;45.186;19.958;2023-05-10T02:49:43;10.18;;;7.97;;
56481;SDS011;42384;45.186;19.958;2023-05-10T02:52:10;13.27;;;8.50;;
56481;SDS011;42384;45.186;19.958;2023-05-10T02:54:41;10.18;;;8.00;;
56481;SDS011;42384;45.186;19.958;2023-05-10T02:57:10;9.35;;;7.85;;
56481;SDS011;42384;45.186;19.958;2023-05-10T02:59:40;11.88;;;8.15;;
56481;SDS011;42384;45.186;19.958;2023-05-10T03:02:11;11.93;;;8.35;;
56481;SDS011;42384;45.186;19.958;2023-05-10T03:04:38;11.13;;;8.82;;
56481;SDS011;42384;45.186;19.958;2023-05-10T03:07:04;10.60;;;7.95;;
56481;SDS011;42384;45.186;19.958;2023-05-10T03:09:31;10.03;;;8.17;;
56481;SDS011;42384;45.186;19.958;2023-05-10T03:12:05;10.25;;;8.38;;
56481;SDS011;42384;45.186;19.958;2023-05-10T03:20:03;13.10;;;8.65;;
56481;SDS011;42384;45.186;19.958;2023-05-10T03:22:30;10.05;;;7.75;;
56481;SDS011;42384;45.186;19.958;2023-05-10T03:27:23;10.55;;;8.07;;
56481;SDS011;42384;45.186;19.958;2023-05-10T03:29:51;11.73;;;8.20;;
56481;SDS011;42384;45.186;19.958;2023-05-10T03:32:17;9.93;;;8.32;;
56481;SDS011;42384;45.186;19.958;2023-05-10T03:34:43;10.37;;;8.30;;
56481;SDS011;42384;45.186;19.958;2023-05-10T03:37:09;9.20;;;8.17;;
56481;SDS011;42384;45.186;19.958;2023-05-10T03:39:36;13.40;;;8.03;;
56481;SDS011;42384;45.186;19.958;2023-05-10T03:42:02;10.13;;;7.30;;
56481;SDS011;42384;45.186;19.958;2023-05-10T03:44:29;10.80;;;7.95;;
56481;SDS011;42384;45.186;19.958;2023-05-10T03:46:55;10.23;;;7.78;;
56481;SDS011;42384;45.186;19.958;2023-05-10T03:49:22;11.85;;;7.85;;
56481;SDS011;42384;45.186;19.958;2023-05-10T03:51:48;12.55;;;7.70;;
56481;SDS011;42384;45.186;19.958;2023-05-10T03:54:14;15.45;;;7.38;;
56481;SDS011;42384;45.186;19.958;2023-05-10T03:56:41;10.00;;;7.63;;
56481;SDS011;42384;45.186;19.958;2023-05-10T03:59:07;9.17;;;7.13;;
56481;SDS011;42384;45.186;19.958;2023-05-10T04:01:34;9.18;;;6.97;;
56481;SDS011;42384;45.186;19.958;2023-05-10T04:04:00;10.77;;;7.47;;
56481;SDS011;42384;45.186;19.958;2023-05-10T04:06:27;8.75;;;6.82;;
56481;SDS011;42384;45.186;19.958;2023-05-10T04:08:53;9.35;;;7.05;;
56481;SDS011;42384;45.186;19.958;2023-05-10T04:11:20;10.65;;;6.65;;
56481;SDS011;42384;45.186;19.958;2023-05-10T04:13:47;10.35;;;6.80;;
56481;SDS011;42384;45.186;19.958;2023-05-10T04:16:13;10.68;;;7.35;;
56481;SDS011;42384;45.186;19.958;2023-05-10T04:18:39;8.48;;;6.93;;
56481;SDS011;42384;45.186;19.958;2023-05-10T04:21:12;8.80;;;6.72;;
56481;SDS011;42384;45.186;19.958;2023-05-10T04:23:38;11.40;;;6.93;;
56481;SDS011;42384;45.186;19.958;2023-05-10T04:26:05;8.02;;;6.43;;
56481;SDS011;42384;45.186;19.958;2023-05-10T04:28:31;9.60;;;6.53;;
56481;SDS011;42384;45.186;19.958;2023-05-10T04:31:04;9.15;;;7.20;;
56481;SDS011;42384;45.186;19.958;2023-05-10T04:33:30;9.05;;;7.13;;
56481;SDS011;42384;45.186;19.958;2023-05-10T04:35:56;9.10;;;6.73;;
56481;SDS011;42384;45.186;19.958;2023-05-10T04:38:22;9.27;;;6.80;;
56481;SDS011;42384;45.186;19.958;2023-05-10T04:40:49;11.90;;;7.40;;
56481;SDS011;42384;45.186;19.958;2023-05-10T04:43:15;9.48;;;6.43;;
56481;SDS011;42384;45.186;19.958;2023-05-10T04:45:41;8.50;;;6.85;;
56481;SDS011;42384;45.186;19.958;2023-05-10T04:48:07;11.10;;;7.03;;
56481;SDS011;42384;45.186;19.958;2023-05-10T04:50:33;10.10;;;6.43;;
56481;SDS011;42384;45.186;19.958;2023-05-10T04:53:00;8.65;;;6.70;;
56481;SDS011;42384;45.186;19.958;2023-05-10T04:55:26;8.82;;;6.28;;
56481;SDS011;42384;45.186;19.958;2023-05-10T04:57:53;9.35;;;6.38;;
56481;SDS011;42384;45.186;19.958;2023-05-10T05:00:22;8.50;;;6.80;;
56481;SDS011;42384;45.186;19.958;2023-05-10T05:02:48;10.48;;;7.00;;
56481;SDS011;42384;45.186;19.958;2023-05-10T05:05:14;11.50;;;6.43;;
56481;SDS011;42384;45.186;19.958;2023-05-10T05:07:40;9.32;;;6.30;;
56481;SDS011;42384;45.186;19.958;2023-05-10T05:10:07;7.70;;;5.85;;
56481;SDS011;42384;45.186;19.958;2023-05-10T05:15:00;8.95;;;5.95;;
56481;SDS011;42384;45.186;19.958;2023-05-10T05:17:27;7.28;;;6.18;;
56481;SDS011;42384;45.186;19.958;2023-05-10T05:19:53;12.50;;;6.60;;
56481;SDS011;42384;45.186;19.958;2023-05-10T05:22:20;8.05;;;5.22;;
56481;SDS011;42384;45.186;19.958;2023-05-10T05:24:52;9.32;;;5.13;;
56481;SDS011;42384;45.186;19.958;2023-05-10T05:27:19;6.63;;;5.75;;
56481;SDS011;42384;45.186;19.958;2023-05-10T05:29:50;7.00;;;5.70;;
56481;SDS011;42384;45.186;19.958;2023-05-10T05:34:44;7.53;;;6.38;;
56481;SDS011;42384;45.186;19.958;2023-05-10T05:37:14;9.32;;;5.93;;
56481;SDS011;42384;45.186;19.958;2023-05-10T05:39:40;9.77;;;5.20;;
56481;SDS011;42384;45.186;19.958;2023-05-10T05:44:33;8.45;;;5.97;;
56481;SDS011;42384;45.186;19.958;2023-05-10T05:46:59;8.93;;;5.93;;
56481;SDS011;42384;45.186;19.958;2023-05-10T05:49:26;10.18;;;6.63;;
56481;SDS011;42384;45.186;19.958;2023-05-10T05:51:52;8.38;;;5.97;;
56481;SDS011;42384;45.186;19.958;2023-05-10T05:54:18;6.28;;;5.32;;
56481;SDS011;42384;45.186;19.958;2023-05-10T05:56:44;11.45;;;5.55;;
56481;SDS011;42384;45.186;19.958;2023-05-10T05:59:11;8.55;;;6.40;;
56481;SDS011;42384;45.186;19.958;2023-05-10T06:01:37;5.75;;;5.07;;
56481;SDS011;42384;45.186;19.958;2023-05-10T06:04:04;12.40;;;5.15;;
56481;SDS011;42384;45.186;19.958;2023-05-10T06:06:30;10.70;;;5.90;;
56481;SDS011;42384;45.186;19.958;2023-05-10T06:08:57;8.50;;;5.70;;
56481;SDS011;42384;45.186;19.958;2023-05-10T06:11:23;10.60;;;5.57;;
56481;SDS011;42384;45.186;19.958;2023-05-10T06:16:16;9.02;;;5.38;;
56481;SDS011;42384;45.186;19.958;2023-05-10T06:18:43;11.30;;;5.85;;
56481;SDS011;42384;45.186;19.958;2023-05-10T06:21:09;11.27;;;5.43;;
56481;SDS011;42384;45.186;19.958;2023-05-10T06:23:35;12.10;;;5.53;;
56481;SDS011;42384;45.186;19.958;2023-05-10T06:26:01;8.63;;;5.38;;
56481;SDS011;42384;45.186;19.958;2023-05-10T06:28:28;7.07;;;5.00;;
56481;SDS011;42384;45.186;19.958;2023-05-10T06:30:56;8.63;;;4.72;;
56481;SDS011;42384;45.186;19.958;2023-05-10T06:33:22;7.90;;;5.55;;
56481;SDS011;42384;45.186;19.958;2023-05-10T06:35:48;12.57;;;5.25;;
56481;SDS011;42384;45.186;19.958;2023-05-10T06:38:15;8.00;;;5.45;;
56481;SDS011;42384;45.186;19.958;2023-05-10T06:40:41;6.40;;;4.82;;
56481;SDS011;42384;45.186;19.958;2023-05-10T06:43:08;10.18;;;4.78;;
56481;SDS011;42384;45.186;19.958;2023-05-10T06:48:01;12.23;;;5.43;;
56481;SDS011;42384;45.186;19.958;2023-05-10T06:50:27;9.30;;;5.25;;
56481;SDS011;42384;45.186;19.958;2023-05-10T06:52:53;6.63;;;4.88;;
56481;SDS011;42384;45.186;19.958;2023-05-10T06:55:20;9.55;;;5.28;;
56481;SDS011;42384;45.186;19.958;2023-05-10T06:57:47;10.20;;;5.63;;
56481;SDS011;42384;45.186;19.958;2023-05-10T07:00:13;7.35;;;5.40;;
56481;SDS011;42384;45.186;19.958;2023-05-10T07:05:06;7.85;;;5.35;;
56481;SDS011;42384;45.186;19.958;2023-05-10T07:07:32;7.88;;;5.03;;
56481;SDS011;42384;45.186;19.958;2023-05-10T07:09:59;15.48;;;5.95;;
56481;SDS011;42384;45.186;19.958;2023-05-10T07:12:25;8.77;;;5.05;;
56481;SDS011;42384;45.186;19.958;2023-05-10T07:14:51;7.25;;;5.38;;
56481;SDS011;42384;45.186;19.958;2023-05-10T07:17:18;10.25;;;5.32;;
56481;SDS011;42384;45.186;19.958;2023-05-10T07:19:44;12.43;;;6.07;;
56481;SDS011;42384;45.186;19.958;2023-05-10T07:22:10;13.73;;;5.88;;
56481;SDS011;42384;45.186;19.958;2023-05-10T07:24:36;10.40;;;5.20;;
56481;SDS011;42384;45.186;19.958;2023-05-10T07:27:03;7.20;;;5.13;;
56481;SDS011;42384;45.186;19.958;2023-05-10T07:29:29;9.32;;;5.90;;
56481;SDS011;42384;45.186;19.958;2023-05-10T07:31:55;6.93;;;5.10;;
56481;SDS011;42384;45.186;19.958;2023-05-10T07:34:22;14.05;;;5.72;;
56481;SDS011;42384;45.186;19.958;2023-05-10T07:36:48;11.25;;;4.82;;
56481;SDS011;42384;45.186;19.958;2023-05-10T07:39:14;10.73;;;5.63;;
56481;SDS011;42384;45.186;19.958;2023-05-10T07:41:41;11.60;;;5.20;;
56481;SDS011;42384;45.186;19.958;2023-05-10T07:44:08;9.43;;;5.68;;
56481;SDS011;42384;45.186;19.958;2023-05-10T07:46:34;8.50;;;5.20;;
56481;SDS011;42384;45.186;19.958;2023-05-10T07:49:01;7.55;;;5.00;;
56481;SDS011;42384;45.186;19.958;2023-05-10T07:51:27;7.68;;;5.40;;
56481;SDS011;42384;45.186;19.958;2023-05-10T07:53:53;8.48;;;5.13;;
56481;SDS011;42384;45.186;19.958;2023-05-10T07:58:46;10.43;;;4.93;;
56481;SDS011;42384;45.186;19.958;2023-05-10T08:01:12;12.15;;;5.28;;
56481;SDS011;42384;45.186;19.958;2023-05-10T08:03:38;8.48;;;5.03;;
56481;SDS011;42384;45.186;19.958;2023-05-10T08:06:05;10.55;;;5.63;;
56481;SDS011;42384;45.186;19.958;2023-05-10T08:10:57;8.73;;;5.28;;
56481;SDS011;42384;45.186;19.958;2023-05-10T08:13:23;11.82;;;5.88;;
56481;SDS011;42384;45.186;19.958;2023-05-10T08:15:50;12.80;;;5.93;;
56481;SDS011;42384;45.186;19.958;2023-05-10T08:18:18;9.38;;;5.35;;
56481;SDS011;42384;45.186;19.958;2023-05-10T08:20:44;13.38;;;5.78;;
56481;SDS011;42384;45.186;19.958;2023-05-10T08:23:14;13.18;;;6.15;;
56481;SDS011;42384;45.186;19.958;2023-05-10T08:25:40;8.63;;;5.90;;
56481;SDS011;42384;45.186;19.958;2023-05-10T08:28:07;10.90;;;6.13;;
56481;SDS011;42384;45.186;19.958;2023-05-10T08:30:33;7.20;;;5.38;;
56481;SDS011;42384;45.186;19.958;2023-05-10T08:32:59;10.57;;;5.88;;
56481;SDS011;42384;45.186;19.958;2023-05-10T08:35:25;13.80;;;5.82;;
56481;SDS011;42384;45.186;19.958;2023-05-10T08:37:52;8.20;;;5.70;;
56481;SDS011;42384;45.186;19.958;2023-05-10T08:40:19;21.55;;;11.00;;
56481;SDS011;42384;45.186;19.958;2023-05-10T08:42:51;10.50;;;5.60;;
56481;SDS011;42384;45.186;19.958;2023-05-10T08:45:20;12.55;;;7.63;;
56481;SDS011;42384;45.186;19.958;2023-05-10T08:47:48;14.45;;;6.47;;
56481;SDS011;42384;45.186;19.958;2023-05-10T08:50:16;8.65;;;6.32;;
56481;SDS011;42384;45.186;19.958;2023-05-10T08:52:43;12.38;;;5.90;;
56481;SDS011;42384;45.186;19.958;2023-05-10T08:55:11;13.65;;;6.70;;
56481;SDS011;42384;45.186;19.958;2023-05-10T08:57:37;12.20;;;6.18;;
56481;SDS011;42384;45.186;19.958;2023-05-10T09:00:03;9.10;;;6.18;;
56481;SDS011;42384;45.186;19.958;2023-05-10T09:02:30;8.68;;;5.80;;
56481;SDS011;42384;45.186;19.958;2023-05-10T09:04:57;11.52;;;5.60;;
56481;SDS011;42384;45.186;19.958;2023-05-10T09:07:23;6.70;;;5.78;;
56481;SDS011;42384;45.186;19.958;2023-05-10T09:09:49;9.88;;;5.55;;
56481;SDS011;42384;45.186;19.958;2023-05-10T09:12:15;10.73;;;5.63;;
56481;SDS011;42384;45.186;19.958;2023-05-10T09:14:42;9.17;;;5.60;;
56481;SDS011;42384;45.186;19.958;2023-05-10T09:19:34;11.23;;;5.80;;
56481;SDS011;42384;45.186;19.958;2023-05-10T09:22:00;9.00;;;4.78;;
56481;SDS011;42384;45.186;19.958;2023-05-10T09:24:29;6.05;;;4.78;;
56481;SDS011;42384;45.186;19.958;2023-05-10T09:26:56;13.05;;;7.63;;
56481;SDS011;42384;45.186;19.958;2023-05-10T09:29:23;17.20;;;8.55;;
56481;SDS011;42384;45.186;19.958;2023-05-10T09:31:50;13.90;;;6.43;;
56481;SDS011;42384;45.186;19.958;2023-05-10T09:34:18;10.23;;;5.28;;
56481;SDS011;42384;45.186;19.958;2023-05-10T09:36:51;11.68;;;5.82;;
56481;SDS011;42384;45.186;19.958;2023-05-10T09:39:17;9.35;;;4.90;;
56481;SDS011;42384;45.186;19.958;2023-05-10T09:41:43;6.57;;;4.45;;
56481;SDS011;42384;45.186;19.958;2023-05-10T09:44:10;13.15;;;5.07;;
56481;SDS011;42384;45.186;19.958;2023-05-10T09:46:36;6.65;;;4.88;;
56481;SDS011;42384;45.186;19.958;2023-05-10T09:49:02;9.25;;;4.45;;
56481;SDS011;42384;45.186;19.958;2023-05-10T09:51:28;6.30;;;4.55;;
56481;SDS011;42384;45.186;19.958;2023-05-10T09:54:08;12.80;;;4.65;;
56481;SDS011;42384;45.186;19.958;2023-05-10T09:56:35;8.32;;;3.95;;
56481;SDS011;42384;45.186;19.958;2023-05-10T09:59:02;8.52;;;3.90;;
56481;SDS011;42384;45.186;19.958;2023-05-10T10:01:29;6.22;;;3.85;;
56481;SDS011;42384;45.186;19.958;2023-05-10T10:03:56;12.88;;;4.05;;
56481;SDS011;42384;45.186;19.958;2023-05-10T10:06:25;13.32;;;4.05;;
56481;SDS011;42384;45.186;19.958;2023-05-10T10:08:51;7.10;;;3.95;;
56481;SDS011;42384;45.186;19.958;2023-05-10T10:11:19;6.10;;;4.18;;
56481;SDS011;42384;45.186;19.958;2023-05-10T10:13:45;6.90;;;3.50;;
56481;SDS011;42384;45.186;19.958;2023-05-10T10:16:12;5.65;;;3.58;;
56481;SDS011;42384;45.186;19.958;2023-05-10T10:18:38;4.45;;;3.17;;
56481;SDS011;42384;45.186;19.958;2023-05-10T10:21:08;8.93;;;3.20;;
56481;SDS011;42384;45.186;19.958;2023-05-10T10:23:34;9.50;;;3.35;;
56481;SDS011;42384;45.186;19.958;2023-05-10T10:26:02;5.38;;;3.63;;
56481;SDS011;42384;45.186;19.958;2023-05-10T10:30:59;4.60;;;3.25;;
56481;SDS011;42384;45.186;19.958;2023-05-10T10:35:54;8.02;;;2.97;;
56481;SDS011;42384;45.186;19.958;2023-05-10T10:38:21;6.40;;;4.25;;
56481;SDS011;42384;45.186;19.958;2023-05-10T10:40:48;8.60;;;3.67;;
56481;SDS011;42384;45.186;19.958;2023-05-10T10:43:24;8.93;;;4.40;;
56481;SDS011;42384;45.186;19.958;2023-05-10T10:48:35;9.18;;;4.05;;
56481;SDS011;42384;45.186;19.958;2023-05-10T10:51:01;7.88;;;3.88;;
56481;SDS011;42384;45.186;19.958;2023-05-10T10:53:28;12.00;;;3.10;;
56481;SDS011;42384;45.186;19.958;2023-05-10T10:56:10;5.88;;;3.33;;
56481;SDS011;42384;45.186;19.958;2023-05-10T10:58:39;5.78;;;2.97;;
56481;SDS011;42384;45.186;19.958;2023-05-10T11:01:12;5.88;;;3.22;;
56481;SDS011;42384;45.186;19.958;2023-05-10T11:03:39;4.10;;;2.85;;
56481;SDS011;42384;45.186;19.958;2023-05-10T11:06:05;6.53;;;3.15;;
56481;SDS011;42384;45.186;19.958;2023-05-10T11:08:33;7.28;;;3.40;;
56481;SDS011;42384;45.186;19.958;2023-05-10T11:16:12;8.18;;;2.80;;
56481;SDS011;42384;45.186;19.958;2023-05-10T11:18:39;7.28;;;3.90;;
56481;SDS011;42384;45.186;19.958;2023-05-10T11:21:06;4.57;;;3.28;;
56481;SDS011;42384;45.186;19.958;2023-05-10T11:26:07;10.65;;;2.92;;
56481;SDS011;42384;45.186;19.958;2023-05-10T11:28:46;8.55;;;2.63;;
56481;SDS011;42384;45.186;19.958;2023-05-10T11:31:13;4.57;;;2.58;;
56481;SDS011;42384;45.186;19.958;2023-05-10T11:33:47;5.95;;;2.40;;
56481;SDS011;42384;45.186;19.958;2023-05-10T11:36:14;4.85;;;2.70;;
56481;SDS011;42384;45.186;19.958;2023-05-10T11:38:40;6.05;;;2.83;;
56481;SDS011;42384;45.186;19.958;2023-05-10T11:41:09;6.07;;;2.80;;
56481;SDS011;42384;45.186;19.958;2023-05-10T11:43:37;3.17;;;2.05;;
56481;SDS011;42384;45.186;19.958;2023-05-10T11:46:06;6.07;;;2.20;;
56481;SDS011;42384;45.186;19.958;2023-05-10T11:48:33;10.93;;;2.92;;
56481;SDS011;42384;45.186;19.958;2023-05-10T11:51:00;5.60;;;2.67;;
56481;SDS011;42384;45.186;19.958;2023-05-10T11:53:27;6.45;;;2.70;;
56481;SDS011;42384;45.186;19.958;2023-05-10T11:55:53;4.22;;;1.77;;
56481;SDS011;42384;45.186;19.958;2023-05-10T11:58:20;6.57;;;2.35;;
56481;SDS011;42384;45.186;19.958;2023-05-10T12:00:48;3.30;;;2.53;;
56481;SDS011;42384;45.186;19.958;2023-05-10T12:03:15;10.57;;;7.90;;
56481;SDS011;42384;45.186;19.958;2023-05-10T12:05:41;5.80;;;2.10;;
56481;SDS011;42384;45.186;19.958;2023-05-10T12:08:14;4.30;;;2.55;;
56481;SDS011;42384;45.186;19.958;2023-05-10T12:10:41;7.35;;;2.03;;
56481;SDS011;42384;45.186;19.958;2023-05-10T12:13:10;4.05;;;2.03;;
56481;SDS011;42384;45.186;19.958;2023-05-10T12:15:38;2.90;;;1.90;;
56481;SDS011;42384;45.186;19.958;2023-05-10T12:18:04;7.28;;;2.30;;
56481;SDS011;42384;45.186;19.958;2023-05-10T12:20:30;5.20;;;2.53;;
56481;SDS011;42384;45.186;19.958;2023-05-10T12:22:57;6.07;;;2.53;;
56481;SDS011;42384;45.186;19.958;2023-05-10T12:25:30;5.57;;;2.45;;
56481;SDS011;42384;45.186;19.958;2023-05-10T12:27:57;5.30;;;2.00;;
56481;SDS011;42384;45.186;19.958;2023-05-10T12:30:26;5.97;;;2.13;;
56481;SDS011;42384;45.186;19.958;2023-05-10T12:32:53;8.75;;;2.55;;
56481;SDS011;42384;45.186;19.958;2023-05-10T12:37:47;4.05;;;2.45;;
56481;SDS011;42384;45.186;19.958;2023-05-10T12:40:13;3.85;;;2.08;;
56481;SDS011;42384;45.186;19.958;2023-05-10T12:42:40;10.55;;;2.63;;
56481;SDS011;42384;45.186;19.958;2023-05-10T12:45:06;6.32;;;1.83;;
56481;SDS011;42384;45.186;19.958;2023-05-10T12:47:33;3.13;;;1.80;;
56481;SDS011;42384;45.186;19.958;2023-05-10T12:50:00;3.10;;;1.85;;
56481;SDS011;42384;45.186;19.958;2023-05-10T12:52:27;3.15;;;1.80;;
56481;SDS011;42384;45.186;19.958;2023-05-10T12:54:54;5.22;;;2.15;;
56481;SDS011;42384;45.186;19.958;2023-05-10T12:57:20;6.38;;;2.00;;
56481;SDS011;42384;45.186;19.958;2023-05-10T12:59:47;5.72;;;1.90;;
56481;SDS011;42384;45.186;19.958;2023-05-10T13:02:13;3.95;;;2.38;;
56481;SDS011;42384;45.186;19.958;2023-05-10T13:04:40;8.25;;;2.15;;
56481;SDS011;42384;45.186;19.958;2023-05-10T13:07:07;9.73;;;2.33;;
56481;SDS011;42384;45.186;19.958;2023-05-10T13:09:33;4.22;;;1.90;;
56481;SDS011;42384;45.186;19.958;2023-05-10T13:11:59;6.03;;;1.92;;
56481;SDS011;42384;45.186;19.958;2023-05-10T13:14:26;7.13;;;2.30;;
56481;SDS011;42384;45.186;19.958;2023-05-10T13:16:52;7.18;;;2.35;;
56481;SDS011;42384;45.186;19.958;2023-05-10T13:19:19;9.63;;;2.75;;
56481;SDS011;42384;45.186;19.958;2023-05-10T13:21:45;4.65;;;2.22;;
56481;SDS011;42384;45.186;19.958;2023-05-10T13:24:11;7.72;;;2.10;;
56481;SDS011;42384;45.186;19.958;2023-05-10T13:26:42;9.48;;;2.22;;
56481;SDS011;42384;45.186;19.958;2023-05-10T13:29:08;13.15;;;2.42;;
56481;SDS011;42384;45.186;19.958;2023-05-10T13:31:34;5.88;;;2.05;;
56481;SDS011;42384;45.186;19.958;2023-05-10T13:34:01;5.07;;;1.90;;
56481;SDS011;42384;45.186;19.958;2023-05-10T13:36:28;5.85;;;2.10;;
56481;SDS011;42384;45.186;19.958;2023-05-10T13:38:54;9.07;;;2.90;;
56481;SDS011;42384;45.186;19.958;2023-05-10T13:41:20;4.93;;;2.20;;
56481;SDS011;42384;45.186;19.958;2023-05-10T13:43:46;3.72;;;1.92;;
56481;SDS011;42384;45.186;19.958;2023-05-10T13:46:14;5.80;;;2.20;;
56481;SDS011;42384;45.186;19.958;2023-05-10T13:48:40;6.30;;;2.00;;
56481;SDS011;42384;45.186;19.958;2023-05-10T13:51:06;7.03;;;2.22;;
56481;SDS011;42384;45.186;19.958;2023-05-10T13:53:32;6.85;;;2.17;;
56481;SDS011;42384;45.186;19.958;2023-05-10T13:55:59;7.72;;;2.33;;
56481;SDS011;42384;45.186;19.958;2023-05-10T13:58:25;5.88;;;2.08;;
56481;SDS011;42384;45.186;19.958;2023-05-10T14:00:51;6.53;;;2.28;;
56481;SDS011;42384;45.186;19.958;2023-05-10T14:03:18;12.50;;;2.58;;
56481;SDS011;42384;45.186;19.958;2023-05-10T14:05:44;5.20;;;2.03;;
56481;SDS011;42384;45.186;19.958;2023-05-10T14:08:10;5.97;;;2.20;;
56481;SDS011;42384;45.186;19.958;2023-05-10T14:10:38;3.80;;;2.28;;
56481;SDS011;42384;45.186;19.958;2023-05-10T14:13:04;5.38;;;2.58;;
56481;SDS011;42384;45.186;19.958;2023-05-10T14:17:57;6.05;;;2.17;;
56481;SDS011;42384;45.186;19.958;2023-05-10T14:20:24;6.13;;;2.05;;
56481;SDS011;42384;45.186;19.958;2023-05-10T14:22:50;3.67;;;2.10;;
56481;SDS011;42384;45.186;19.958;2023-05-10T14:25:16;4.75;;;2.15;;
56481;SDS011;42384;45.186;19.958;2023-05-10T14:27:43;5.57;;;1.90;;
56481;SDS011;42384;45.186;19.958;2023-05-10T14:30:09;4.07;;;2.03;;
56481;SDS011;42384;45.186;19.958;2023-05-10T14:32:35;4.20;;;1.85;;
56481;SDS011;42384;45.186;19.958;2023-05-10T14:35:02;4.88;;;2.45;;
56481;SDS011;42384;45.186;19.958;2023-05-10T14:37:28;6.80;;;2.25;;
56481;SDS011;42384;45.186;19.958;2023-05-10T14:39:55;8.45;;;2.13;;
56481;SDS011;42384;45.186;19.958;2023-05-10T14:42:21;10.30;;;2.33;;
56481;SDS011;42384;45.186;19.958;2023-05-10T14:44:47;6.00;;;2.20;;
56481;SDS011;42384;45.186;19.958;2023-05-10T14:47:14;5.78;;;2.30;;
56481;SDS011;42384;45.186;19.958;2023-05-10T14:49:40;3.08;;;1.67;;
56481;SDS011;42384;45.186;19.958;2023-05-10T14:52:06;5.88;;;2.08;;
56481;SDS011;42384;45.186;19.958;2023-05-10T14:54:32;4.13;;;2.20;;
56481;SDS011;42384;45.186;19.958;2023-05-10T14:56:59;5.75;;;1.98;;
56481;SDS011;42384;45.186;19.958;2023-05-10T14:59:25;29.38;;;18.33;;
56481;SDS011;42384;45.186;19.958;2023-05-10T15:01:52;18.90;;;10.30;;
56481;SDS011;42384;45.186;19.958;2023-05-10T15:04:18;14.75;;;7.57;;
56481;SDS011;42384;45.186;19.958;2023-05-10T15:06:44;5.78;;;3.75;;
56481;SDS011;42384;45.186;19.958;2023-05-10T15:09:10;6.72;;;3.92;;
56481;SDS011;42384;45.186;19.958;2023-05-10T15:11:36;10.10;;;3.47;;
56481;SDS011;42384;45.186;19.958;2023-05-10T15:14:03;3.85;;;1.40;;
56481;SDS011;42384;45.186;19.958;2023-05-10T15:16:29;5.68;;;1.65;;
56481;SDS011;42384;45.186;19.958;2023-05-10T15:18:55;5.82;;;1.70;;
56481;SDS011;42384;45.186;19.958;2023-05-10T15:21:21;4.80;;;1.38;;
56481;SDS011;42384;45.186;19.958;2023-05-10T15:23:48;5.38;;;1.30;;
56481;SDS011;42384;45.186;19.958;2023-05-10T15:26:14;6.07;;;1.67;;
56481;SDS011;42384;45.186;19.958;2023-05-10T15:28:40;5.90;;;1.50;;
56481;SDS011;42384;45.186;19.958;2023-05-10T15:31:07;12.48;;;1.85;;
56481;SDS011;42384;45.186;19.958;2023-05-10T15:33:33;8.25;;;1.83;;